Time;durP1;ratioP1;P1;durP2;ratioP2;P2;SDS_P1;SDS_P2;PMS_P1;PMS_P2;Temp;Humidity;BMP_temperature;BMP_pressure;BME280_temperature;BME280_humidity;BME280_pressure;Samples;Min_cycle;Max_cycle;Signal;HPM_P1;HPM_P2
2023/05/18 00:02:07;;;;;;;6.23;1.80;;;6.30;99.90;;;;;;5024292;28;20206;-85
2023/05/18 00:04:34;;;;;;;5.50;2.33;;;6.30;99.90;;;;;;5026995;28;20213;-85
2023/05/18 00:07:05;;;;;;;10.30;1.90;;;6.20;99.90;;;;;;5028578;28;20587;-82
2023/05/18 00:09:34;;;;;;;7.17;2.27;;;6.20;99.90;;;;;;5023995;28;20171;-83
2023/05/18 00:12:01;;;;;;;10.47;2.10;;;6.20;99.90;;;;;;5024598;28;20253;-84
2023/05/18 00:14:27;;;;;;;6.50;2.07;;;6.10;99.90;;;;;;5024270;28;20182;-85
2023/05/18 00:16:53;;;;;;;6.90;2.03;;;6.00;99.90;;;;;;5031166;28;20197;-85
2023/05/18 00:19:23;;;;;;;7.50;2.20;;;6.10;99.90;;;;;;5027870;28;20192;-85
2023/05/18 00:21:51;;;;;;;9.63;2.30;;;6.00;99.90;;;;;;5029226;28;20194;-86
2023/05/18 00:24:18;;;;;;;9.93;3.00;;;6.10;99.90;;;;;;5021555;28;20197;-85
2023/05/18 00:26:46;;;;;;;5.63;2.10;;;6.00;99.90;;;;;;5026925;28;20683;-85
2023/05/18 00:29:12;;;;;;;9.00;2.47;;;6.00;99.90;;;;;;5028225;28;20186;-84
2023/05/18 00:31:39;;;;;;;11.10;2.30;;;5.90;99.90;;;;;;5022566;28;20213;-84
2023/05/18 00:34:09;;;;;;;6.13;1.80;;;5.90;99.90;;;;;;5022850;28;20189;-85
2023/05/18 00:39:12;;;;;;;8.27;2.50;;;5.80;99.90;;;;;;5357212;23;20234;-85
2023/05/18 00:41:38;;;;;;;11.50;2.17;;;5.70;99.90;;;;;;5048839;28;20255;-84
2023/05/18 00:44:04;;;;;;;5.80;1.80;;;5.70;99.90;;;;;;5054725;28;20272;-84
2023/05/18 00:46:30;;;;;;;6.37;2.13;;;5.60;99.90;;;;;;5055107;28;20269;-85
2023/05/18 00:48:57;;;;;;;4.53;1.80;;;5.50;99.90;;;;;;5056103;28;20228;-85
2023/05/18 00:51:24;;;;;;;6.07;1.97;;;5.50;99.90;;;;;;5054966;28;20264;-84
2023/05/18 00:53:52;;;;;;;5.23;2.00;;;5.50;99.90;;;;;;5054873;28;20186;-84
2023/05/18 00:56:20;;;;;;;11.80;2.00;;;5.50;99.90;;;;;;5055683;28;20190;-83
2023/05/18 00:58:46;;;;;;;4.60;2.07;;;5.50;99.90;;;;;;5056101;28;20216;-85
2023/05/18 01:01:12;;;;;;;6.03;1.97;;;5.50;99.90;;;;;;5055983;28;20227;-83
2023/05/18 01:03:38;;;;;;;5.47;1.97;;;5.40;99.90;;;;;;5055929;28;20596;-83
2023/05/18 01:06:05;;;;;;;4.87;1.93;;;5.40;99.90;;;;;;5056176;28;20620;-84
2023/05/18 01:08:32;;;;;;;6.23;2.00;;;5.40;99.90;;;;;;5055277;28;20494;-84
2023/05/18 01:11:04;;;;;;;6.20;2.00;;;5.30;99.90;;;;;;5055617;28;20694;-83
2023/05/18 01:13:39;;;;;;;4.53;1.70;;;5.30;99.90;;;;;;5055626;28;20507;-84
2023/05/18 01:16:11;;;;;;;7.43;1.90;;;5.20;99.90;;;;;;5055920;28;20165;-85
2023/05/18 01:18:45;;;;;;;9.83;2.30;;;5.10;99.90;;;;;;5054553;28;20631;-83
2023/05/18 01:21:30;;;;;;;6.10;1.80;;;5.10;99.90;;;;;;5055669;28;20560;-83
2023/05/18 01:24:17;;;;;;;6.90;1.77;;;5.10;99.90;;;;;;5055540;28;20223;-84
2023/05/18 01:26:49;;;;;;;10.37;2.00;;;5.10;99.90;;;;;;5055399;28;20166;-84
2023/05/18 01:29:18;;;;;;;5.70;1.93;;;5.20;99.90;;;;;;5054342;28;20180;-84
2023/05/18 01:31:44;;;;;;;9.27;1.90;;;5.20;99.90;;;;;;5055320;28;20284;-84
2023/05/18 01:34:10;;;;;;;3.80;1.63;;;5.20;99.90;;;;;;5054808;28;20268;-84
2023/05/18 01:36:35;;;;;;;4.80;1.50;;;5.10;99.90;;;;;;5053837;28;20181;-85
2023/05/18 01:39:01;;;;;;;12.07;2.20;;;5.10;99.90;;;;;;5055216;28;20238;-84
2023/05/18 01:41:29;;;;;;;9.67;2.13;;;5.00;99.90;;;;;;5053973;28;20648;-82
2023/05/18 01:44:08;;;;;;;4.57;1.87;;;4.90;99.90;;;;;;5055292;28;20158;-84
2023/05/18 01:46:53;;;;;;;6.37;2.00;;;4.80;99.90;;;;;;5055252;28;20530;-84
2023/05/18 01:49:55;;;;;;;8.13;1.97;;;4.80;99.90;;;;;;5053808;28;20174;-84
2023/05/18 01:52:33;;;;;;;4.80;1.83;;;4.80;99.90;;;;;;5054872;28;20633;-84
2023/05/18 01:55:02;;;;;;;7.53;2.17;;;4.80;99.90;;;;;;5054287;28;20173;-84
2023/05/18 01:57:30;;;;;;;10.87;2.00;;;4.80;99.90;;;;;;5053299;28;20631;-84
2023/05/18 01:59:58;;;;;;;7.23;2.00;;;4.80;99.90;;;;;;5054928;28;20215;-84
2023/05/18 02:02:25;;;;;;;5.60;1.73;;;4.80;99.90;;;;;;5053569;28;20178;-85
2023/05/18 02:04:51;;;;;;;10.30;2.30;;;4.80;99.90;;;;;;5054683;28;20177;-84
2023/05/18 02:07:17;;;;;;;5.17;2.20;;;4.70;99.90;;;;;;5054699;28;20174;-84
2023/05/18 02:09:43;;;;;;;5.77;1.73;;;4.60;99.90;;;;;;5053137;28;20185;-84
2023/05/18 02:12:09;;;;;;;5.80;2.17;;;4.60;99.90;;;;;;5054173;28;20241;-82
2023/05/18 02:14:36;;;;;;;4.80;1.60;;;4.70;99.90;;;;;;5054461;28;20263;-82
2023/05/18 02:17:02;;;;;;;5.17;2.13;;;4.60;99.90;;;;;;5054364;28;20253;-81
2023/05/18 02:19:29;;;;;;;6.00;1.87;;;4.60;99.90;;;;;;5052998;28;20261;-82
2023/05/18 02:21:56;;;;;;;6.87;1.90;;;4.40;99.90;;;;;;5054309;28;20231;-82
2023/05/18 02:24:23;;;;;;;7.63;2.07;;;4.40;99.90;;;;;;5054147;28;20162;-81
2023/05/18 02:26:52;;;;;;;4.53;2.00;;;4.40;99.90;;;;;;5052787;28;20519;-82
2023/05/18 02:29:18;;;;;;;7.67;2.13;;;4.40;99.90;;;;;;5054130;28;20189;-81
2023/05/18 02:31:43;;;;;;;6.17;1.97;;;4.40;99.90;;;;;;5054064;28;20220;-82
2023/05/18 02:34:10;;;;;;;6.83;2.10;;;4.40;99.90;;;;;;5054093;28;20245;-81
2023/05/18 02:36:38;;;;;;;6.83;2.07;;;4.30;99.90;;;;;;5054091;28;20180;-82
2023/05/18 02:39:09;;;;;;;8.40;2.03;;;4.30;99.90;;;;;;5053767;28;20651;-82
2023/05/18 02:41:35;;;;;;;5.83;2.07;;;4.40;99.90;;;;;;5053514;28;20185;-81
2023/05/18 02:44:05;;;;;;;3.90;1.90;;;4.40;99.90;;;;;;5054046;28;20170;-83
2023/05/18 02:46:31;;;;;;;7.20;1.97;;;4.30;99.90;;;;;;5053890;28;20166;-84
2023/05/18 02:48:57;;;;;;;5.70;2.20;;;4.10;99.90;;;;;;5053827;28;20174;-84
2023/05/18 02:51:23;;;;;;;5.53;1.90;;;4.00;99.90;;;;;;5053787;28;20212;-82
2023/05/18 02:53:51;;;;;;;5.33;2.40;;;3.90;99.90;;;;;;5053750;28;20174;-83
2023/05/18 02:56:17;;;;;;;3.83;2.00;;;3.90;99.90;;;;;;5053943;28;20170;-84
2023/05/18 02:58:43;;;;;;;6.50;2.00;;;4.00;99.90;;;;;;5053732;28;20177;-82
2023/05/18 03:01:11;;;;;;;7.60;2.30;;;4.00;99.90;;;;;;5053464;28;20519;-83
2023/05/18 03:03:38;;;;;;;4.60;1.90;;;4.00;99.90;;;;;;5053754;28;20158;-83
2023/05/18 03:06:07;;;;;;;9.77;2.40;;;4.10;99.90;;;;;;5053593;28;20174;-83
2023/05/18 03:08:33;;;;;;;4.77;1.83;;;4.00;99.90;;;;;;5053877;28;20257;-83
2023/05/18 03:10:59;;;;;;;6.17;1.80;;;4.00;99.90;;;;;;5053772;28;20166;-83
2023/05/18 03:13:25;;;;;;;6.77;1.97;;;4.00;99.90;;;;;;5053403;28;20198;-83
2023/05/18 03:15:51;;;;;;;3.00;1.60;;;4.10;99.90;;;;;;5053737;28;20166;-84
2023/05/18 03:18:18;;;;;;;4.03;1.73;;;4.10;99.90;;;;;;5053644;28;20174;-83
2023/05/18 03:20:45;;;;;;;5.83;1.70;;;4.10;99.90;;;;;;5053573;28;20577;-83
2023/05/18 03:23:10;;;;;;;6.27;2.00;;;4.00;99.90;;;;;;5052331;28;20487;-83
2023/05/18 03:25:36;;;;;;;3.93;2.07;;;3.80;99.90;;;;;;5053164;28;20181;-83
2023/05/18 03:28:05;;;;;;;4.80;1.97;;;3.80;99.90;;;;;;5053356;28;20166;-84
2023/05/18 03:30:32;;;;;;;4.87;2.03;;;3.80;99.90;;;;;;5053490;28;20170;-83
2023/05/18 03:32:59;;;;;;;5.93;2.00;;;3.80;99.90;;;;;;5053396;28;20256;-83
2023/05/18 03:35:25;;;;;;;4.93;2.10;;;3.80;99.90;;;;;;5053346;28;20167;-83
2023/05/18 03:37:50;;;;;;;4.77;1.80;;;3.80;99.90;;;;;;5053224;28;20174;-84
2023/05/18 03:40:17;;;;;;;6.73;1.93;;;3.80;99.90;;;;;;5053457;28;20162;-83
2023/05/18 03:42:42;;;;;;;8.00;2.27;;;3.70;99.90;;;;;;5051540;28;20616;-82
2023/05/18 03:45:09;;;;;;;2.67;1.67;;;3.70;99.90;;;;;;5053388;28;20181;-83
2023/05/18 03:47:35;;;;;;;3.90;1.77;;;3.70;99.90;;;;;;5052490;28;20581;-84
2023/05/18 03:50:02;;;;;;;8.17;2.37;;;3.70;99.90;;;;;;5053421;28;20254;-83
2023/05/18 03:52:28;;;;;;;7.60;2.00;;;3.80;99.90;;;;;;5053144;28;20316;-81
2023/05/18 03:54:55;;;;;;;5.33;2.23;;;3.80;99.90;;;;;;5052137;28;20179;-83
2023/05/18 03:57:21;;;;;;;6.07;2.10;;;3.80;99.90;;;;;;5051833;28;20547;-84
2023/05/18 03:59:47;;;;;;;8.87;2.40;;;3.80;99.90;;;;;;5053017;28;20608;-84
2023/05/18 04:02:15;;;;;;;5.00;2.43;;;3.90;99.90;;;;;;5052941;28;20177;-82
2023/05/18 04:04:41;;;;;;;6.93;2.60;;;4.00;99.90;;;;;;5053274;28;20620;-84
2023/05/18 04:07:10;;;;;;;10.33;2.30;;;4.00;99.90;;;;;;5053321;28;20174;-83
2023/05/18 04:09:35;;;;;;;8.67;2.40;;;4.00;99.90;;;;;;5053189;28;20193;-83
2023/05/18 04:12:04;;;;;;;6.73;2.30;;;4.00;99.90;;;;;;5052628;28;20717;-83
2023/05/18 04:14:31;;;;;;;5.30;2.10;;;4.00;99.90;;;;;;5053143;28;20558;-83
2023/05/18 04:17:04;;;;;;;5.63;2.33;;;4.00;99.90;;;;;;5051960;28;20181;-83
2023/05/18 04:19:33;;;;;;;8.87;2.70;;;4.10;99.90;;;;;;5056302;28;20253;-83
2023/05/18 04:21:59;;;;;;;5.70;2.20;;;4.10;99.90;;;;;;5056547;28;20174;-83
2023/05/18 04:24:28;;;;;;;6.13;2.40;;;4.10;99.90;;;;;;5056684;28;20197;-84
2023/05/18 04:26:54;;;;;;;4.07;1.90;;;4.10;99.90;;;;;;5055221;28;20209;-84
2023/05/18 04:29:21;;;;;;;7.13;2.37;;;4.00;99.90;;;;;;5056470;28;20166;-84
2023/05/18 04:31:48;;;;;;;6.97;2.33;;;4.10;99.90;;;;;;5056443;28;20206;-84
2023/05/18 04:34:16;;;;;;;8.40;2.80;;;4.10;99.90;;;;;;5056464;28;20517;-84
2023/05/18 04:36:43;;;;;;;7.37;2.50;;;4.00;99.90;;;;;;5056723;28;20557;-83
2023/05/18 04:39:09;;;;;;;5.33;2.00;;;4.10;99.90;;;;;;5055897;28;20221;-83
2023/05/18 04:41:36;;;;;;;5.00;2.20;;;4.20;99.90;;;;;;5056396;28;20500;-83
2023/05/18 04:44:02;;;;;;;7.57;2.70;;;4.20;99.90;;;;;;5055971;28;20158;-83
2023/05/18 04:46:29;;;;;;;10.17;2.50;;;4.30;99.90;;;;;;5055094;28;20775;-83
2023/05/18 04:48:56;;;;;;;5.70;1.87;;;4.30;99.90;;;;;;5055961;28;20178;-83
2023/05/18 04:51:23;;;;;;;6.43;2.30;;;4.40;99.90;;;;;;5055909;28;20215;-83
2023/05/18 04:53:54;;;;;;;8.23;2.40;;;4.50;99.90;;;;;;5056052;28;20170;-84
2023/05/18 04:56:21;;;;;;;7.17;2.37;;;4.50;99.90;;;;;;5056178;28;20181;-83
2023/05/18 04:58:48;;;;;;;5.07;2.43;;;4.70;99.90;;;;;;5055679;28;20227;-84
2023/05/18 05:01:14;;;;;;;12.67;2.87;;;4.90;99.90;;;;;;5056123;28;20520;-84
2023/05/18 05:03:41;;;;;;;8.10;2.70;;;5.10;99.90;;;;;;5055912;28;20665;-84
2023/05/18 05:06:07;;;;;;;5.30;2.33;;;5.30;99.90;;;;;;5055592;28;20170;-83
2023/05/18 05:08:34;;;;;;;8.70;2.83;;;5.30;99.90;;;;;;5054649;28;20268;-84
2023/05/18 05:11:00;;;;;;;7.17;2.33;;;5.50;99.90;;;;;;5054556;28;20714;-83
2023/05/18 05:13:26;;;;;;;5.93;2.43;;;5.70;99.90;;;;;;5047528;28;20261;-84
2023/05/18 05:15:52;;;;;;;7.73;2.60;;;5.80;99.90;;;;;;5040889;28;20488;-86
2023/05/18 05:18:18;;;;;;;8.17;2.70;;;6.00;99.90;;;;;;5036331;28;20171;-87
2023/05/18 05:20:43;;;;;;;8.13;2.63;;;6.10;99.90;;;;;;5036007;28;20261;-86
2023/05/18 05:23:11;;;;;;;9.63;2.83;;;6.20;99.90;;;;;;5045982;28;20560;-86
2023/05/18 05:25:39;;;;;;;8.93;2.80;;;6.20;99.90;;;;;;5046993;28;20569;-86
2023/05/18 05:28:05;;;;;;;6.47;2.83;;;6.20;99.90;;;;;;5045390;28;20249;-87
2023/05/18 05:30:31;;;;;;;8.10;3.10;;;6.30;99.90;;;;;;5053929;28;20574;-87
2023/05/18 05:32:57;;;;;;;9.77;2.90;;;6.40;99.90;;;;;;5055966;28;20206;-85
2023/05/18 05:35:23;;;;;;;8.73;2.83;;;6.40;99.90;;;;;;5042206;28;20622;-85
2023/05/18 05:37:48;;;;;;;5.63;2.40;;;6.50;99.90;;;;;;5038902;28;20228;-87
2023/05/18 05:40:14;;;;;;;5.63;2.60;;;6.50;99.90;;;;;;5052281;28;20174;-87
2023/05/18 05:42:40;;;;;;;13.23;3.10;;;6.50;99.90;;;;;;5052688;28;20589;-88
2023/05/18 05:45:07;;;;;;;9.47;2.73;;;6.50;99.90;;;;;;5045693;28;20506;-87
2023/05/18 05:47:33;;;;;;;6.13;2.73;;;6.60;99.90;;;;;;5035689;28;20174;-86
2023/05/18 05:49:58;;;;;;;8.73;2.73;;;6.70;99.90;;;;;;5044128;28;20189;-88
2023/05/18 05:52:27;;;;;;;10.73;3.30;;;6.80;99.90;;;;;;5047616;28;20653;-88
2023/05/18 05:54:54;;;;;;;8.93;2.73;;;6.80;99.90;;;;;;5047498;28;20261;-88
2023/05/18 05:57:20;;;;;;;10.87;2.87;;;6.90;99.90;;;;;;5055252;28;20538;-85
2023/05/18 05:59:45;;;;;;;9.30;3.00;;;6.90;99.90;;;;;;5053938;28;20185;-88
2023/05/18 06:02:11;;;;;;;9.47;2.87;;;7.00;99.90;;;;;;5055433;28;20166;-87
2023/05/18 06:04:37;;;;;;;8.43;3.40;;;6.90;99.90;;;;;;5055761;28;20166;-88
2023/05/18 06:07:03;;;;;;;8.40;3.53;;;6.90;99.90;;;;;;5055763;28;20177;-89
2023/05/18 06:09:30;;;;;;;6.47;3.00;;;6.90;99.90;;;;;;5055252;28;20174;-88
2023/05/18 06:11:55;;;;;;;10.93;3.53;;;7.00;99.90;;;;;;5055698;28;20210;-88
2023/05/18 06:14:22;;;;;;;10.73;4.10;;;7.10;99.90;;;;;;5055037;28;20172;-87
2023/05/18 06:16:48;;;;;;;11.13;3.40;;;7.20;99.90;;;;;;5055335;28;20174;-87
2023/05/18 06:19:14;;;;;;;15.10;4.33;;;7.20;99.90;;;;;;5055147;28;20174;-87
2023/05/18 06:21:40;;;;;;;9.30;4.20;;;7.30;99.90;;;;;;5053836;28;20559;-87
2023/05/18 06:24:11;;;;;;;9.27;3.77;;;7.40;99.90;;;;;;5054896;28;20174;-89
2023/05/18 06:26:37;;;;;;;9.97;3.73;;;7.50;99.90;;;;;;5055109;28;20158;-87
2023/05/18 06:29:04;;;;;;;9.53;3.57;;;7.60;99.90;;;;;;5054576;28;20180;-87
2023/05/18 06:31:30;;;;;;;9.03;3.73;;;7.70;99.90;;;;;;5054784;28;20220;-85
2023/05/18 06:33:56;;;;;;;5.67;2.60;;;7.80;99.90;;;;;;5054525;28;20672;-86
2023/05/18 06:36:21;;;;;;;11.67;2.93;;;7.90;99.90;;;;;;5051979;28;20178;-83
2023/05/18 06:38:47;;;;;;;8.93;2.97;;;8.10;99.90;;;;;;5054091;28;20608;-85
2023/05/18 06:41:13;;;;;;;7.93;2.30;;;8.20;99.90;;;;;;5053641;28;20178;-83
2023/05/18 06:43:39;;;;;;;10.07;2.80;;;8.40;99.90;;;;;;5046488;28;20174;-86
2023/05/18 06:46:06;;;;;;;7.27;3.00;;;8.50;99.90;;;;;;5044254;28;20158;-85
2023/05/18 06:48:32;;;;;;;9.93;1.90;;;8.70;99.90;;;;;;5044871;28;20182;-87
2023/05/18 06:50:58;;;;;;;8.43;2.43;;;8.90;99.90;;;;;;5037382;28;20196;-87
2023/05/18 06:53:25;;;;;;;11.13;2.20;;;9.10;99.90;;;;;;5043604;28;20206;-87
2023/05/18 06:55:52;;;;;;;9.43;2.00;;;9.30;99.90;;;;;;5035770;28;20177;-85
2023/05/18 06:58:19;;;;;;;7.47;2.07;;;9.50;99.90;;;;;;5048400;28;20182;-85
2023/05/18 07:00:45;;;;;;;6.82;2.25;;;9.60;99.90;;;;;;5052924;28;20241;-87
2023/05/18 07:03:17;;;;;;;6.63;2.27;;;9.40;99.90;;;;;;5042504;28;20181;-89
2023/05/18 07:05:42;;;;;;;7.10;1.90;;;9.50;99.90;;;;;;5038545;28;20182;-88
2023/05/18 07:08:08;;;;;;;8.60;2.57;;;9.60;99.90;;;;;;5041277;28;20493;-82
2023/05/18 07:10:34;;;;;;;7.85;2.35;;;9.80;99.90;;;;;;5040014;28;20201;-89
2023/05/18 07:13:01;;;;;;;10.63;2.37;;;9.90;99.90;;;;;;5045584;28;20532;-86
2023/05/18 07:15:27;;;;;;;6.80;2.20;;;10.00;99.90;;;;;;5045470;28;20186;-88
2023/05/18 07:17:52;;;;;;;6.37;1.87;;;10.20;99.90;;;;;;5044456;28;20186;-88
2023/05/18 07:20:18;;;;;;;7.22;2.08;;;10.30;99.90;;;;;;5053488;28;20215;-86
2023/05/18 07:22:44;;;;;;;8.90;2.10;;;10.40;99.90;;;;;;5054556;28;20178;-88
2023/05/18 07:25:11;;;;;;;6.47;1.80;;;10.40;99.90;;;;;;5053992;28;20182;-88
2023/05/18 07:27:36;;;;;;;6.68;1.83;;;10.40;99.90;;;;;;5051822;28;20185;-92
2023/05/18 07:30:02;;;;;;;8.38;1.73;;;10.40;99.90;;;;;;5053963;28;20495;-88
2023/05/18 07:32:28;;;;;;;7.47;2.13;;;10.40;99.90;;;;;;5037367;28;20209;-85
2023/05/18 07:34:54;;;;;;;6.25;1.45;;;10.40;99.90;;;;;;5048348;28;20186;-89
2023/05/18 07:37:19;;;;;;;9.03;1.47;;;10.50;99.90;;;;;;5047215;28;20183;-91
2023/05/18 07:39:45;;;;;;;4.88;1.60;;;10.70;99.90;;;;;;5039248;28;20222;-92
2023/05/18 07:42:11;;;;;;;9.70;1.83;;;10.80;99.90;;;;;;5047914;28;20205;-94
2023/05/18 07:44:51;;;;;;;8.40;1.92;;;10.90;99.90;;;;;;5054559;28;20194;-96
2023/05/18 07:47:16;;;;;;;11.10;2.10;;;11.00;99.90;;;;;;5054175;28;20205;-93
2023/05/18 07:49:43;;;;;;;7.63;2.05;;;11.00;99.90;;;;;;5054706;28;20659;-94
2023/05/18 07:52:08;;;;;;;10.02;2.55;;;11.20;99.90;;;;;;5054677;28;20249;-88
2023/05/18 07:54:35;;;;;;;9.57;2.00;;;11.10;99.90;;;;;;5057768;28;20216;-86
2023/05/18 07:57:03;;;;;;;7.68;2.28;;;11.10;99.90;;;;;;5058091;28;20166;-95
2023/05/18 07:59:28;;;;;;;9.82;1.83;;;11.20;99.30;;;;;;5058457;28;20170;-88
2023/05/18 08:01:56;;;;;;;9.93;2.05;;;11.20;99.40;;;;;;5058354;28;20352;-90
2023/05/18 08:04:23;;;;;;;8.15;2.25;;;11.10;99.70;;;;;;5058253;28;20170;-89
2023/05/18 08:06:49;;;;;;;7.15;2.17;;;11.20;98.80;;;;;;5058142;28;20180;-88
2023/05/18 08:09:15;;;;;;;7.45;2.38;;;11.20;99.90;;;;;;5058065;28;20256;-89
2023/05/18 08:11:41;;;;;;;7.47;1.80;;;11.30;99.30;;;;;;5057680;28;20519;-90
2023/05/18 08:14:07;;;;;;;5.68;2.20;;;11.50;99.90;;;;;;5057512;28;20181;-89
2023/05/18 08:16:36;;;;;;;7.70;2.13;;;11.80;99.50;;;;;;5057090;28;20166;-86
2023/05/18 08:19:02;;;;;;;7.43;1.90;;;12.00;99.90;;;;;;5057487;28;20242;-89
2023/05/18 08:21:28;;;;;;;7.10;2.30;;;12.10;98.60;;;;;;5057436;28;20166;-92
2023/05/18 08:23:54;;;;;;;8.30;2.10;;;12.20;98.10;;;;;;5056012;28;20517;-82
2023/05/18 08:26:21;;;;;;;7.97;2.22;;;12.20;96.90;;;;;;5057064;28;20174;-89
2023/05/18 08:28:47;;;;;;;6.30;1.92;;;12.10;97.20;;;;;;5057149;28;20180;-89
2023/05/18 08:31:14;;;;;;;10.43;2.10;;;12.20;97.50;;;;;;5056210;28;20178;-89
2023/05/18 08:33:40;;;;;;;8.05;1.95;;;12.30;98.10;;;;;;5057361;28;20181;-90
2023/05/18 08:36:07;;;;;;;5.10;1.90;;;12.30;98.00;;;;;;5057674;28;20165;-87
2023/05/18 08:38:33;;;;;;;8.10;2.22;;;12.30;96.90;;;;;;5057239;28;20241;-87
2023/05/18 08:41:18;;;;;;;8.65;2.35;;;12.40;97.10;;;;;;5050593;28;20187;-85
2023/05/18 08:43:47;;;;;;;6.70;2.05;;;12.40;97.40;;;;;;5051572;28;20181;-82
2023/05/18 08:46:20;;;;;;;8.82;1.80;;;12.60;96.90;;;;;;5047423;28;20182;-87
2023/05/18 08:48:48;;;;;;;8.45;1.95;;;12.70;97.30;;;;;;5038121;28;20182;-87
2023/05/18 08:51:19;;;;;;;8.30;2.05;;;12.90;97.80;;;;;;5041643;28;20180;-91
2023/05/18 08:53:51;;;;;;;8.27;2.03;;;13.10;97.00;;;;;;5056098;28;20174;-87
2023/05/18 08:56:20;;;;;;;7.63;1.85;;;13.30;97.10;;;;;;5057132;28;20162;-92
2023/05/18 08:58:49;;;;;;;8.07;1.95;;;13.40;96.60;;;;;;5057228;28;20490;-86
2023/05/18 09:01:16;;;;;;;11.68;2.05;;;13.50;96.10;;;;;;5055818;28;20178;-85
2023/05/18 09:03:45;;;;;;;5.45;1.80;;;13.50;95.60;;;;;;5055075;28;20234;-87
2023/05/18 09:06:11;;;;;;;8.15;2.13;;;13.60;95.80;;;;;;5054874;28;20170;-86
2023/05/18 09:08:38;;;;;;;7.68;1.85;;;13.70;96.50;;;;;;5055400;28;20197;-89
2023/05/18 09:11:04;;;;;;;7.60;1.60;;;13.70;95.30;;;;;;5044006;28;20189;-86
2023/05/18 09:13:30;;;;;;;8.70;1.90;;;13.90;96.10;;;;;;5055616;28;20220;-92
2023/05/18 09:15:56;;;;;;;7.88;2.05;;;13.90;95.80;;;;;;5055325;28;20174;-90
2023/05/18 09:18:22;;;;;;;10.07;2.78;;;14.00;96.60;;;;;;5045803;28;20194;-85
2023/05/18 09:20:47;;;;;;;10.43;2.17;;;14.00;95.00;;;;;;5046937;28;20601;-92
2023/05/18 09:23:16;;;;;;;7.80;2.00;;;14.10;96.40;;;;;;5056109;28;20174;-93
2023/05/18 09:25:48;;;;;;;6.35;1.75;;;14.30;96.10;;;;;;5056201;28;20181;-92
2023/05/18 09:28:25;;;;;;;7.85;2.00;;;14.30;97.00;;;;;;5049736;28;20182;-87
2023/05/18 09:30:52;;;;;;;9.50;2.10;;;14.50;95.40;;;;;;5048988;28;20197;-91
2023/05/18 09:33:22;;;;;;;9.25;1.67;;;14.60;95.50;;;;;;5046206;28;20633;-89
2023/05/18 09:35:50;;;;;;;6.32;1.77;;;14.70;95.90;;;;;;5040633;28;20185;-87
2023/05/18 09:38:20;;;;;;;5.25;1.65;;;14.80;95.40;;;;;;5035819;28;20222;-87
2023/05/18 09:40:48;;;;;;;8.43;2.10;;;14.90;94.70;;;;;;5042388;28;20625;-84
2023/05/18 09:43:15;;;;;;;9.93;1.88;;;15.00;93.80;;;;;;5055038;28;20205;-88
2023/05/18 09:45:43;;;;;;;9.23;2.00;;;15.10;93.30;;;;;;5055978;28;20170;-89
2023/05/18 09:48:09;;;;;;;5.85;1.65;;;15.30;93.30;;;;;;5055813;28;20166;-88
2023/05/18 09:50:36;;;;;;;6.63;1.75;;;15.20;91.50;;;;;;5055527;28;20200;-85
2023/05/18 09:53:07;;;;;;;9.70;2.80;;;15.20;93.70;;;;;;5054196;28;20214;-88
2023/05/18 09:55:43;;;;;;;10.70;2.22;;;15.30;93.20;;;;;;5055715;28;20158;-84
2023/05/18 09:58:09;;;;;;;7.65;1.95;;;15.50;94.40;;;;;;5054259;28;20496;-89
2023/05/18 10:00:43;;;;;;;5.10;1.83;;;15.70;92.20;;;;;;5056055;28;20204;-83
2023/05/18 10:03:21;;;;;;;6.95;1.80;;;15.80;91.90;;;;;;5055960;28;20161;-89
2023/05/18 10:05:50;;;;;;;8.18;2.00;;;15.90;92.70;;;;;;5055621;28;20574;-87
2023/05/18 10:08:17;;;;;;;8.75;2.22;;;15.90;91.00;;;;;;5054438;28;20257;-84
2023/05/18 10:10:48;;;;;;;4.15;1.60;;;16.10;91.60;;;;;;5041045;28;20635;-88
2023/05/18 10:13:18;;;;;;;5.65;1.60;;;16.10;92.30;;;;;;5053468;28;20305;-88
2023/05/18 10:15:53;;;;;;;12.65;2.63;;;16.10;92.80;;;;;;5054774;28;20181;-84
2023/05/18 10:18:35;;;;;;;5.78;1.77;;;16.30;92.70;;;;;;5054243;28;20170;-89
2023/05/18 10:21:03;;;;;;;10.10;2.55;;;16.40;91.20;;;;;;5055161;28;20249;-89
2023/05/18 10:23:34;;;;;;;11.20;1.90;;;15.90;90.10;;;;;;5040536;28;20265;-85
2023/05/18 10:26:03;;;;;;;7.20;1.80;;;15.60;91.10;;;;;;5032329;28;20177;-83
2023/05/18 10:28:41;;;;;;;6.28;1.75;;;15.50;92.20;;;;;;5062263;28;20268;-86
2023/05/18 10:31:07;;;;;;;8.65;1.83;;;15.40;91.60;;;;;;5065110;28;20650;-88
2023/05/18 10:33:35;;;;;;;11.07;1.95;;;15.30;91.20;;;;;;5061259;28;20266;-85
2023/05/18 10:36:03;;;;;;;9.73;1.63;;;15.20;91.50;;;;;;5057341;28;20236;-86
2023/05/18 10:38:30;;;;;;;9.40;1.77;;;15.40;91.50;;;;;;5048107;28;20232;-91
2023/05/18 10:40:59;;;;;;;6.25;1.90;;;15.50;91.80;;;;;;5055797;28;20260;-86
2023/05/18 10:43:26;;;;;;;5.22;1.77;;;15.60;91.20;;;;;;5060517;28;20251;-88
2023/05/18 10:45:57;;;;;;;6.38;2.10;;;15.70;90.70;;;;;;5063329;28;20616;-86
2023/05/18 10:48:23;;;;;;;6.65;2.05;;;15.90;91.80;;;;;;5054103;28;20169;-86
2023/05/18 10:50:51;;;;;;;8.57;1.80;;;15.80;90.20;;;;;;5053880;28;20492;-84
2023/05/18 10:53:18;;;;;;;8.48;1.95;;;15.30;89.00;;;;;;5053086;28;20699;-86
2023/05/18 10:55:49;;;;;;;7.35;2.05;;;15.40;91.80;;;;;;5053950;28;20209;-86
2023/05/18 10:58:18;;;;;;;7.30;2.00;;;15.30;90.00;;;;;;5053543;28;20173;-85
2023/05/18 11:00:54;;;;;;;7.03;2.03;;;15.30;91.00;;;;;;5054549;28;20229;-85
2023/05/18 11:03:21;;;;;;;6.63;1.80;;;15.10;90.80;;;;;;5052911;28;20208;-86
2023/05/18 11:05:51;;;;;;;5.15;1.63;;;15.10;91.40;;;;;;5054178;28;20166;-87
2023/05/18 11:08:26;;;;;;;8.32;2.05;;;14.80;90.80;;;;;;5053152;28;20178;-84
2023/05/18 11:11:00;;;;;;;6.38;1.92;;;14.60;90.90;;;;;;5054056;28;20177;-86
2023/05/18 11:13:31;;;;;;;5.90;1.83;;;14.40;92.80;;;;;;5053828;28;20222;-86
2023/05/18 11:15:58;;;;;;;7.40;2.25;;;14.40;92.50;;;;;;5054467;28;20255;-85
2023/05/18 11:18:40;;;;;;;10.77;2.10;;;14.50;94.10;;;;;;5054347;28;20166;-87
2023/05/18 11:21:31;;;;;;;12.25;2.33;;;14.60;91.50;;;;;;5047246;28;20256;-86
2023/05/18 11:24:18;;;;;;;9.02;1.88;;;14.90;90.10;;;;;;5046356;28;20182;-82
2023/05/18 11:26:56;;;;;;;6.88;1.67;;;14.70;90.20;;;;;;5036254;28;20256;-86
2023/05/18 11:29:39;;;;;;;6.68;1.70;;;14.90;92.20;;;;;;5042571;28;20620;-86
2023/05/18 11:32:21;;;;;;;8.32;2.20;;;15.20;91.90;;;;;;5057869;28;20200;-84
2023/05/18 11:34:52;;;;;;;7.03;2.25;;;15.60;90.80;;;;;;5056859;28;20200;-87
2023/05/18 11:37:38;;;;;;;10.13;1.80;;;15.80;90.30;;;;;;5056792;28;20609;-87
2023/05/18 11:40:09;;;;;;;7.63;2.00;;;15.90;90.10;;;;;;5047524;28;20213;-87
2023/05/18 11:42:35;;;;;;;6.53;2.10;;;16.10;90.20;;;;;;5037136;28;20162;-87
2023/05/18 11:45:13;;;;;;;8.82;1.98;;;16.20;90.00;;;;;;5037734;28;20174;-82
2023/05/18 11:47:39;;;;;;;6.72;2.08;;;16.30;88.80;;;;;;5053278;28;20617;-82
2023/05/18 11:50:13;;;;;;;7.65;1.98;;;16.20;90.40;;;;;;5037556;28;20609;-85
2023/05/18 11:52:47;;;;;;;5.55;2.05;;;15.90;88.10;;;;;;5037351;28;20214;-82
2023/05/18 11:55:15;;;;;;;6.97;1.67;;;15.30;89.40;;;;;;5037395;28;20171;-82
2023/05/18 11:57:46;;;;;;;10.15;2.03;;;15.20;90.70;;;;;;5037133;28;20206;-81
2023/05/18 12:00:13;;;;;;;6.53;1.48;;;15.40;90.50;;;;;;5052640;28;20174;-82
2023/05/18 12:02:43;;;;;;;6.15;1.65;;;15.70;90.40;;;;;;5052658;28;20179;-82
2023/05/18 12:05:09;;;;;;;5.25;1.80;;;16.00;90.10;;;;;;5037542;28;20174;-84
2023/05/18 12:07:36;;;;;;;8.32;1.92;;;16.00;90.00;;;;;;5037234;28;20179;-82
2023/05/18 12:10:05;;;;;;;6.32;1.95;;;16.10;87.30;;;;;;5037834;28;20174;-83
2023/05/18 12:12:32;;;;;;;9.30;2.08;;;16.00;87.20;;;;;;5054808;28;20256;-89
2023/05/18 12:15:10;;;;;;;13.77;5.30;;;16.00;87.50;;;;;;5046062;28;20170;-86
2023/05/18 12:17:40;;;;;;;8.85;2.28;;;16.00;88.40;;;;;;5044497;28;20715;-81
2023/05/18 12:20:27;;;;;;;4.72;1.85;;;16.20;90.20;;;;;;5042072;28;20170;-81
2023/05/18 12:22:54;;;;;;;5.75;1.70;;;16.30;87.30;;;;;;5036566;28;20175;-81
2023/05/18 12:25:22;;;;;;;7.88;2.13;;;16.50;87.50;;;;;;5037346;28;20179;-82
2023/05/18 12:27:48;;;;;;;6.82;1.85;;;16.60;86.00;;;;;;5040091;28;20660;-81
2023/05/18 12:30:14;;;;;;;4.30;1.58;;;16.60;86.40;;;;;;5047641;28;20628;-82
2023/05/18 12:33:01;;;;;;;11.52;1.90;;;16.60;87.00;;;;;;5047472;28;20221;-82
2023/05/18 12:35:28;;;;;;;8.38;1.95;;;16.70;87.20;;;;;;5040561;28;20170;-81
2023/05/18 12:37:56;;;;;;;9.82;2.90;;;16.80;87.30;;;;;;5036314;28;20214;-86
2023/05/18 12:40:22;;;;;;;5.72;1.88;;;16.80;85.10;;;;;;5036705;28;20253;-82
2023/05/18 12:42:53;;;;;;;3.78;1.60;;;16.90;86.40;;;;;;5054324;28;20254;-84
2023/05/18 12:45:22;;;;;;;5.00;1.70;;;17.00;89.70;;;;;;5053983;28;20205;-81
2023/05/18 12:47:52;;;;;;;6.47;1.60;;;17.00;84.10;;;;;;5056066;28;20181;-81
2023/05/18 12:50:19;;;;;;;5.30;1.63;;;17.20;88.80;;;;;;5056142;28;20162;-80
2023/05/18 12:52:47;;;;;;;9.95;1.73;;;17.20;87.10;;;;;;5048131;28;20202;-85
2023/05/18 12:55:20;;;;;;;12.38;2.00;;;17.00;83.50;;;;;;5038892;28;20544;-82
2023/05/18 12:58:07;;;;;;;7.22;1.85;;;16.90;82.50;;;;;;5043538;28;20580;-84
2023/05/18 13:00:34;;;;;;;10.25;2.03;;;17.00;86.90;;;;;;5028328;28;20187;-84